sensor_id;sensor_type;location;lat;lon;timestamp;pressure;altitude;pressure_sealevel;temperature;humidity
32759;BME280;19125;52.360;9.974;2023-03-12T00:01:28;88620.84;;;-145.17;61.14
32759;BME280;19125;52.360;9.974;2023-03-12T00:03:54;88632.75;;;-145.17;61.43
32759;BME280;19125;52.360;9.974;2023-03-12T00:06:20;88664.53;;;-145.17;61.43
32759;BME280;19125;52.360;9.974;2023-03-12T00:08:47;88632.75;;;-145.17;61.41
32759;BME280;19125;52.360;9.974;2023-03-12T00:11:15;88648.66;;;-145.17;61.67
32759;BME280;19125;52.360;9.974;2023-03-12T00:13:41;88632.75;;;-145.17;61.54
32759;BME280;19125;52.360;9.974;2023-03-12T00:16:09;88678.44;;;-145.17;61.69
32759;BME280;19125;52.360;9.974;2023-03-12T00:18:35;88678.44;;;-145.17;62.03
32759;BME280;19125;52.360;9.974;2023-03-12T00:21:01;88672.47;;;-145.17;61.92
32759;BME280;19125;52.360;9.974;2023-03-12T00:23:26;88652.63;;;-145.17;61.91
32759;BME280;19125;52.360;9.974;2023-03-12T00:25:52;88692.31;;;-145.17;61.86
32759;BME280;19125;52.360;9.974;2023-03-12T00:28:17;88692.31;;;-145.17;61.63
32759;BME280;19125;52.360;9.974;2023-03-12T00:30:42;88626.81;;;-145.17;61.47
32759;BME280;19125;52.360;9.974;2023-03-12T00:33:09;88652.63;;;-145.17;61.55
32759;BME280;19125;52.360;9.974;2023-03-12T00:35:37;88634.75;;;-145.17;61.29
32759;BME280;19125;52.360;9.974;2023-03-12T00:38:02;88658.56;;;-145.17;61.64
32759;BME280;19125;52.360;9.974;2023-03-12T00:40:27;88676.44;;;-145.17;61.83
32759;BME280;19125;52.360;9.974;2023-03-12T00:42:53;88668.50;;;-145.17;62.02
32759;BME280;19125;52.360;9.974;2023-03-12T00:45:18;88684.38;;;-145.17;61.92
32759;BME280;19125;52.360;9.974;2023-03-12T00:47:43;88636.72;;;-145.17;62.01
32759;BME280;19125;52.360;9.974;2023-03-12T00:50:09;88698.28;;;-145.17;62.21
32759;BME280;19125;52.360;9.974;2023-03-12T00:52:34;88710.19;;;-145.17;62.19
32759;BME280;19125;52.360;9.974;2023-03-12T00:55:00;88704.25;;;-145.17;62.00
32759;BME280;19125;52.360;9.974;2023-03-12T00:57:25;88688.34;;;-145.17;62.15
32759;BME280;19125;52.360;9.974;2023-03-12T00:59:51;88680.41;;;-145.17;62.08
32759;BME280;19125;52.360;9.974;2023-03-12T01:02:16;88700.28;;;-145.17;62.13
32759;BME280;19125;52.360;9.974;2023-03-12T01:04:41;88644.66;;;-145.17;62.23
32759;BME280;19125;52.360;9.974;2023-03-12T01:07:06;88680.41;;;-145.17;61.98
32759;BME280;19125;52.360;9.974;2023-03-12T01:09:32;88704.25;;;-145.17;61.78
32759;BME280;19125;52.360;9.974;2023-03-12T01:11:57;88686.38;;;-145.17;62.07
32759;BME280;19125;52.360;9.974;2023-03-12T01:14:23;88682.41;;;-145.17;61.92
32759;BME280;19125;52.360;9.974;2023-03-12T01:16:49;88660.56;;;-145.17;61.72
32759;BME280;19125;52.360;9.974;2023-03-12T01:19:14;88652.63;;;-145.17;62.04
32759;BME280;19125;52.360;9.974;2023-03-12T01:21:40;88664.53;;;-145.17;61.98
32759;BME280;19125;52.360;9.974;2023-03-12T01:24:05;88640.69;;;-145.17;61.84
32759;BME280;19125;52.360;9.974;2023-03-12T01:26:31;88644.66;;;-145.17;61.86
32759;BME280;19125;52.360;9.974;2023-03-12T01:28:56;88626.81;;;-145.17;61.86
32759;BME280;19125;52.360;9.974;2023-03-12T01:31:22;88648.66;;;-145.17;61.85
32759;BME280;19125;52.360;9.974;2023-03-12T01:33:49;88690.34;;;-145.17;62.04
32759;BME280;19125;52.360;9.974;2023-03-12T01:36:23;88640.69;;;-145.17;61.91
32759;BME280;19125;52.360;9.974;2023-03-12T01:38:51;88672.47;;;-145.17;61.94
32759;BME280;19125;52.360;9.974;2023-03-12T01:41:17;88698.28;;;-145.17;61.91
32759;BME280;19125;52.360;9.974;2023-03-12T01:43:44;88668.50;;;-145.17;61.87
32759;BME280;19125;52.360;9.974;2023-03-12T01:49:07;88722.13;;;-145.17;61.82
32759;BME280;19125;52.360;9.974;2023-03-12T01:51:45;88672.47;;;-145.17;61.85
32759;BME280;19125;52.360;9.974;2023-03-12T01:54:22;88650.63;;;-145.17;61.82
32759;BME280;19125;52.360;9.974;2023-03-12T01:56:49;88656.59;;;-145.17;61.76
32759;BME280;19125;52.360;9.974;2023-03-12T01:59:20;88644.66;;;-145.17;62.03
32759;BME280;19125;52.360;9.974;2023-03-12T02:01:47;88672.47;;;-145.17;61.96
32759;BME280;19125;52.360;9.974;2023-03-12T02:04:15;88648.66;;;-145.17;61.88
32759;BME280;19125;52.360;9.974;2023-03-12T02:06:48;88626.81;;;-145.17;61.92
32759;BME280;19125;52.360;9.974;2023-03-12T02:09:14;88644.66;;;-145.17;61.83
32759;BME280;19125;52.360;9.974;2023-03-12T02:11:43;88680.41;;;-145.17;61.80
32759;BME280;19125;52.360;9.974;2023-03-12T02:14:09;88664.53;;;-145.17;62.02
32759;BME280;19125;52.360;9.974;2023-03-12T02:16:34;88650.63;;;-145.17;62.06
32759;BME280;19125;52.360;9.974;2023-03-12T02:19:00;88658.56;;;-145.17;62.00
32759;BME280;19125;52.360;9.974;2023-03-12T02:21:30;88662.53;;;-145.17;62.13
32759;BME280;19125;52.360;9.974;2023-03-12T02:26:43;88692.31;;;-145.17;62.45
32759;BME280;19125;52.360;9.974;2023-03-12T02:29:09;88680.41;;;-145.17;62.42
32759;BME280;19125;52.360;9.974;2023-03-12T02:31:40;88732.03;;;-145.17;62.47
32759;BME280;19125;52.360;9.974;2023-03-12T02:34:07;88720.13;;;-145.17;62.65
32759;BME280;19125;52.360;9.974;2023-03-12T02:36:33;88743.94;;;-145.17;62.90
32759;BME280;19125;52.360;9.974;2023-03-12T02:38:59;88692.31;;;-145.17;62.61
32759;BME280;19125;52.360;9.974;2023-03-12T02:41:30;88720.13;;;-145.17;62.77
32759;BME280;19125;52.360;9.974;2023-03-12T02:44:19;88739.97;;;-145.17;62.78
32759;BME280;19125;52.360;9.974;2023-03-12T02:46:51;88763.81;;;-145.17;62.76
32759;BME280;19125;52.360;9.974;2023-03-12T02:49:19;88757.84;;;-145.17;62.73
32759;BME280;19125;52.360;9.974;2023-03-12T02:51:46;88765.78;;;-145.17;62.81
32759;BME280;19125;52.360;9.974;2023-03-12T02:54:13;88745.94;;;-145.17;62.69
32759;BME280;19125;52.360;9.974;2023-03-12T02:56:39;88745.94;;;-145.17;62.76
32759;BME280;19125;52.360;9.974;2023-03-12T02:59:06;88738.00;;;-145.17;62.65
32759;BME280;19125;52.360;9.974;2023-03-12T03:01:32;88730.06;;;-145.17;63.04
32759;BME280;19125;52.360;9.974;2023-03-12T03:03:58;88743.94;;;-145.17;62.74
32759;BME280;19125;52.360;9.974;2023-03-12T03:06:24;88724.09;;;-145.17;62.62
32759;BME280;19125;52.360;9.974;2023-03-12T03:08:50;88732.03;;;-145.17;63.03
32759;BME280;19125;52.360;9.974;2023-03-12T03:11:15;88763.81;;;-145.17;62.67
32759;BME280;19125;52.360;9.974;2023-03-12T03:13:41;88773.75;;;-145.17;62.85
32759;BME280;19125;52.360;9.974;2023-03-12T03:16:06;88730.06;;;-145.17;62.72
32759;BME280;19125;52.360;9.974;2023-03-12T03:18:32;88730.06;;;-145.17;62.96
32759;BME280;19125;52.360;9.974;2023-03-12T03:21:00;88736.00;;;-145.17;62.71
32759;BME280;19125;52.360;9.974;2023-03-12T03:23:25;88676.44;;;-145.17;62.80
32759;BME280;19125;52.360;9.974;2023-03-12T03:25:51;88698.28;;;-145.17;62.69
32759;BME280;19125;52.360;9.974;2023-03-12T03:28:21;88726.09;;;-145.17;62.52
32759;BME280;19125;52.360;9.974;2023-03-12T03:30:47;88732.03;;;-145.17;62.53
32759;BME280;19125;52.360;9.974;2023-03-12T03:33:12;88730.06;;;-145.17;62.85
32759;BME280;19125;52.360;9.974;2023-03-12T03:35:38;88730.06;;;-145.17;62.74
32759;BME280;19125;52.360;9.974;2023-03-12T03:38:03;88757.84;;;-145.17;62.90
32759;BME280;19125;52.360;9.974;2023-03-12T03:40:28;88728.06;;;-145.17;62.92
32759;BME280;19125;52.360;9.974;2023-03-12T03:42:54;88763.81;;;-145.17;63.06
32759;BME280;19125;52.360;9.974;2023-03-12T03:45:20;88773.75;;;-145.17;62.98
32759;BME280;19125;52.360;9.974;2023-03-12T03:47:45;88803.53;;;-145.17;63.21
32759;BME280;19125;52.360;9.974;2023-03-12T03:50:11;88799.56;;;-145.17;63.26
32759;BME280;19125;52.360;9.974;2023-03-12T03:52:36;88815.44;;;-145.17;63.20
32759;BME280;19125;52.360;9.974;2023-03-12T03:55:02;88795.56;;;-145.17;63.43
32759;BME280;19125;52.360;9.974;2023-03-12T03:57:28;88773.75;;;-145.17;63.20
32759;BME280;19125;52.360;9.974;2023-03-12T03:59:53;88789.63;;;-145.17;63.47
32759;BME280;19125;52.360;9.974;2023-03-12T04:02:19;88777.72;;;-145.17;63.45
32759;BME280;19125;52.360;9.974;2023-03-12T04:04:44;88807.50;;;-145.17;63.25
32759;BME280;19125;52.360;9.974;2023-03-12T04:07:10;88779.69;;;-145.17;63.84
32759;BME280;19125;52.360;9.974;2023-03-12T04:09:35;88807.50;;;-145.17;63.78
32759;BME280;19125;52.360;9.974;2023-03-12T04:12:01;88801.53;;;-145.17;63.77
32759;BME280;19125;52.360;9.974;2023-03-12T04:14:26;88803.53;;;-145.17;63.85
32759;BME280;19125;52.360;9.974;2023-03-12T04:16:52;88831.31;;;-145.17;64.06
32759;BME280;19125;52.360;9.974;2023-03-12T04:19:17;88829.34;;;-145.17;63.87
32759;BME280;19125;52.360;9.974;2023-03-12T04:21:42;88823.38;;;-145.17;63.58
32759;BME280;19125;52.360;9.974;2023-03-12T04:24:13;88839.25;;;-145.17;64.02
32759;BME280;19125;52.360;9.974;2023-03-12T04:26:39;88835.28;;;-145.17;63.88
32759;BME280;19125;52.360;9.974;2023-03-12T04:29:04;88819.41;;;-145.17;63.85
32759;BME280;19125;52.360;9.974;2023-03-12T04:31:30;88811.47;;;-145.17;63.68
32759;BME280;19125;52.360;9.974;2023-03-12T04:33:55;88785.66;;;-145.17;63.69
32759;BME280;19125;52.360;9.974;2023-03-12T04:36:21;88771.75;;;-145.17;63.60
32759;BME280;19125;52.360;9.974;2023-03-12T04:38:46;88793.59;;;-145.17;63.51
32759;BME280;19125;52.360;9.974;2023-03-12T04:41:13;88781.69;;;-145.17;63.19
32759;BME280;19125;52.360;9.974;2023-03-12T04:43:38;88755.88;;;-145.17;63.20
32759;BME280;19125;52.360;9.974;2023-03-12T04:46:05;88771.75;;;-145.17;62.93
32759;BME280;19125;52.360;9.974;2023-03-12T04:48:30;88755.88;;;-145.17;63.28
32759;BME280;19125;52.360;9.974;2023-03-12T04:50:56;88779.69;;;-145.17;63.30
32759;BME280;19125;52.360;9.974;2023-03-12T04:53:21;88755.88;;;-145.17;62.74
32759;BME280;19125;52.360;9.974;2023-03-12T04:55:47;88755.88;;;-145.17;63.04
32759;BME280;19125;52.360;9.974;2023-03-12T04:58:13;88753.88;;;-145.17;62.97
32759;BME280;19125;52.360;9.974;2023-03-12T05:00:39;88720.13;;;-145.17;62.92
32759;BME280;19125;52.360;9.974;2023-03-12T05:03:05;88734.03;;;-145.17;62.82
32759;BME280;19125;52.360;9.974;2023-03-12T05:05:30;88773.75;;;-145.17;62.78
32759;BME280;19125;52.360;9.974;2023-03-12T05:07:56;88755.88;;;-145.17;62.80
32759;BME280;19125;52.360;9.974;2023-03-12T05:10:21;88734.03;;;-145.17;62.68
32759;BME280;19125;52.360;9.974;2023-03-12T05:12:46;88710.19;;;-145.17;62.96
32759;BME280;19125;52.360;9.974;2023-03-12T05:15:12;88747.94;;;-145.17;62.94
32759;BME280;19125;52.360;9.974;2023-03-12T05:17:40;88716.16;;;-145.17;62.98
32759;BME280;19125;52.360;9.974;2023-03-12T05:20:05;88767.78;;;-145.17;62.76
32759;BME280;19125;52.360;9.974;2023-03-12T05:22:31;88747.94;;;-145.17;62.82
32759;BME280;19125;52.360;9.974;2023-03-12T05:24:56;88751.91;;;-145.17;63.25
32759;BME280;19125;52.360;9.974;2023-03-12T05:27:22;88761.81;;;-145.17;63.01
32759;BME280;19125;52.360;9.974;2023-03-12T05:29:50;88743.94;;;-145.17;63.35
32759;BME280;19125;52.360;9.974;2023-03-12T05:32:15;88763.81;;;-145.17;63.45
32759;BME280;19125;52.360;9.974;2023-03-12T05:34:41;88759.84;;;-145.17;63.27
32759;BME280;19125;52.360;9.974;2023-03-12T05:37:06;88720.13;;;-145.17;63.10
32759;BME280;19125;52.360;9.974;2023-03-12T05:39:31;88710.19;;;-145.17;63.29
32759;BME280;19125;52.360;9.974;2023-03-12T05:41:57;88704.25;;;-145.17;63.21
32759;BME280;19125;52.360;9.974;2023-03-12T05:44:24;88745.94;;;-145.17;63.04
32759;BME280;19125;52.360;9.974;2023-03-12T05:46:50;88728.06;;;-145.17;62.71
32759;BME280;19125;52.360;9.974;2023-03-12T05:49:16;88706.22;;;-145.17;62.80
32759;BME280;19125;52.360;9.974;2023-03-12T05:51:41;88741.97;;;-145.17;63.07
32759;BME280;19125;52.360;9.974;2023-03-12T05:54:08;88674.44;;;-145.17;63.11
32759;BME280;19125;52.360;9.974;2023-03-12T05:56:35;88684.38;;;-145.17;63.00
32759;BME280;19125;52.360;9.974;2023-03-12T05:59:01;88718.13;;;-145.17;62.92
32759;BME280;19125;52.360;9.974;2023-03-12T06:01:28;88700.28;;;-145.17;62.84
32759;BME280;19125;52.360;9.974;2023-03-12T06:03:54;88704.25;;;-145.17;63.03
32759;BME280;19125;52.360;9.974;2023-03-12T06:06:19;88658.56;;;-145.17;62.71
32759;BME280;19125;52.360;9.974;2023-03-12T06:08:45;88656.59;;;-145.17;62.72
32759;BME280;19125;52.360;9.974;2023-03-12T06:11:11;88674.44;;;-145.17;62.55
32759;BME280;19125;52.360;9.974;2023-03-12T06:13:36;88666.50;;;-145.17;62.56
32759;BME280;19125;52.360;9.974;2023-03-12T06:16:16;88666.50;;;-145.17;62.02
32759;BME280;19125;52.360;9.974;2023-03-12T06:18:42;88624.81;;;-145.17;62.17
32759;BME280;19125;52.360;9.974;2023-03-12T06:21:16;88632.75;;;-145.17;61.91
32759;BME280;19125;52.360;9.974;2023-03-12T06:23:42;88581.13;;;-145.17;62.27
32759;BME280;19125;52.360;9.974;2023-03-12T06:26:09;88573.19;;;-145.17;61.87
32759;BME280;19125;52.360;9.974;2023-03-12T06:28:35;88543.41;;;-145.17;61.53
32759;BME280;19125;52.360;9.974;2023-03-12T06:31:00;88559.28;;;-145.17;61.33
32759;BME280;19125;52.360;9.974;2023-03-12T06:33:26;88543.41;;;-145.17;61.30
32759;BME280;19125;52.360;9.974;2023-03-12T06:35:53;88499.72;;;-145.17;60.96
32759;BME280;19125;52.360;9.974;2023-03-12T06:38:19;88489.78;;;-145.17;60.82
32759;BME280;19125;52.360;9.974;2023-03-12T06:40:53;88485.81;;;-145.17;60.79
32759;BME280;19125;52.360;9.974;2023-03-12T06:43:18;88467.97;;;-145.17;60.41
32759;BME280;19125;52.360;9.974;2023-03-12T06:45:44;88408.41;;;-145.17;60.24
32759;BME280;19125;52.360;9.974;2023-03-12T06:48:09;88412.38;;;-145.17;59.82
32759;BME280;19125;52.360;9.974;2023-03-12T06:50:34;88388.53;;;-145.17;59.40
32759;BME280;19125;52.360;9.974;2023-03-12T06:53:00;88374.63;;;-145.17;59.30
32759;BME280;19125;52.360;9.974;2023-03-12T06:55:25;88336.91;;;-145.17;59.06
32759;BME280;19125;52.360;9.974;2023-03-12T06:57:50;88313.09;;;-145.17;58.88
32759;BME280;19125;52.360;9.974;2023-03-12T07:00:16;88319.06;;;-145.17;58.71
32759;BME280;19125;52.360;9.974;2023-03-12T07:02:41;88243.59;;;-145.17;58.40
32759;BME280;19125;52.360;9.974;2023-03-12T07:05:07;88253.53;;;-145.17;58.00
32759;BME280;19125;52.360;9.974;2023-03-12T07:07:32;88289.25;;;-145.17;58.03
32759;BME280;19125;52.360;9.974;2023-03-12T07:09:58;88235.66;;;-145.17;57.98
32759;BME280;19125;52.360;9.974;2023-03-12T07:12:23;88231.69;;;-145.17;57.67
32759;BME280;19125;52.360;9.974;2023-03-12T07:14:49;88191.97;;;-145.17;57.39
32759;BME280;19125;52.360;9.974;2023-03-12T07:17:14;88162.19;;;-145.17;57.17
32759;BME280;19125;52.360;9.974;2023-03-12T07:19:39;88182.06;;;-145.17;57.38
32759;BME280;19125;52.360;9.974;2023-03-12T07:22:05;88160.22;;;-145.17;56.91
32759;BME280;19125;52.360;9.974;2023-03-12T07:24:30;88122.50;;;-145.17;57.08
32759;BME280;19125;52.360;9.974;2023-03-12T07:26:55;88120.50;;;-145.17;56.37
32759;BME280;19125;52.360;9.974;2023-03-12T07:29:21;88118.53;;;-145.17;56.29
32759;BME280;19125;52.360;9.974;2023-03-12T07:31:46;88078.81;;;-145.17;56.24
32759;BME280;19125;52.360;9.974;2023-03-12T07:34:11;88076.84;;;-145.17;56.19
32759;BME280;19125;52.360;9.974;2023-03-12T07:36:37;88088.75;;;-145.17;55.58
32759;BME280;19125;52.360;9.974;2023-03-12T07:39:03;88027.19;;;-145.17;55.74
32759;BME280;19125;52.360;9.974;2023-03-12T07:41:28;87969.63;;;-145.17;55.03
32759;BME280;19125;52.360;9.974;2023-03-12T07:43:54;87979.56;;;-145.17;54.81
32759;BME280;19125;52.360;9.974;2023-03-12T07:46:19;87941.84;;;-145.17;54.79
32759;BME280;19125;52.360;9.974;2023-03-12T07:48:45;87961.69;;;-145.17;54.38
32759;BME280;19125;52.360;9.974;2023-03-12T07:51:10;87890.22;;;-145.17;54.00
32759;BME280;19125;52.360;9.974;2023-03-12T07:53:35;87890.22;;;-145.17;53.79
32759;BME280;19125;52.360;9.974;2023-03-12T07:56:01;87878.31;;;-145.17;52.69
32759;BME280;19125;52.360;9.974;2023-03-12T07:58:26;87866.41;;;-145.17;52.89
32759;BME280;19125;52.360;9.974;2023-03-12T08:00:54;87884.25;;;-145.17;53.08
32759;BME280;19125;52.360;9.974;2023-03-12T08:03:19;87834.63;;;-145.17;52.27
32759;BME280;19125;52.360;9.974;2023-03-12T08:05:54;87790.97;;;-145.17;52.21
32759;BME280;19125;52.360;9.974;2023-03-12T08:08:20;87790.97;;;-145.17;51.72
32759;BME280;19125;52.360;9.974;2023-03-12T08:10:45;87790.97;;;-145.17;51.68
32759;BME280;19125;52.360;9.974;2023-03-12T08:13:10;87769.13;;;-145.17;51.41
32759;BME280;19125;52.360;9.974;2023-03-12T08:15:36;87735.38;;;-145.17;50.86
32759;BME280;19125;52.360;9.974;2023-03-12T08:18:01;87739.34;;;-145.17;50.76
32759;BME280;19125;52.360;9.974;2023-03-12T08:20:27;87723.47;;;-145.17;50.43
32759;BME280;19125;52.360;9.974;2023-03-12T08:22:52;87719.50;;;-145.17;50.49
32759;BME280;19125;52.360;9.974;2023-03-12T08:25:17;87697.66;;;-145.17;50.32
32759;BME280;19125;52.360;9.974;2023-03-12T08:27:45;87634.13;;;-145.17;49.73
32759;BME280;19125;52.360;9.974;2023-03-12T08:30:11;87665.91;;;-145.17;48.77
32759;BME280;19125;52.360;9.974;2023-03-12T08:32:36;87663.91;;;-145.17;48.89
32759;BME280;19125;52.360;9.974;2023-03-12T08:35:01;87644.06;;;-145.17;48.18
32759;BME280;19125;52.360;9.974;2023-03-12T08:37:29;87544.81;;;-145.17;47.91
32759;BME280;19125;52.360;9.974;2023-03-12T08:39:54;87602.38;;;-145.17;47.69
32759;BME280;19125;52.360;9.974;2023-03-12T08:42:20;87564.66;;;-145.17;47.59
32759;BME280;19125;52.360;9.974;2023-03-12T08:44:45;87572.59;;;-145.17;47.22
32759;BME280;19125;52.360;9.974;2023-03-12T08:47:10;87572.59;;;-145.17;46.48
32759;BME280;19125;52.360;9.974;2023-03-12T08:49:36;87540.84;;;-145.17;46.61
32759;BME280;19125;52.360;9.974;2023-03-12T08:52:01;87548.78;;;-145.17;46.54
32759;BME280;19125;52.360;9.974;2023-03-12T08:54:26;87532.91;;;-145.17;46.96
32759;BME280;19125;52.360;9.974;2023-03-12T08:56:52;87564.66;;;-145.17;47.00
32759;BME280;19125;52.360;9.974;2023-03-12T08:59:18;87540.84;;;-145.17;46.58
32759;BME280;19125;52.360;9.974;2023-03-12T09:01:47;87526.94;;;-145.17;46.52
32759;BME280;19125;52.360;9.974;2023-03-12T09:04:13;87542.81;;;-145.17;46.76
32759;BME280;19125;52.360;9.974;2023-03-12T09:06:38;87554.72;;;-145.17;46.36
32759;BME280;19125;52.360;9.974;2023-03-12T09:09:04;87536.88;;;-145.17;45.88
32759;BME280;19125;52.360;9.974;2023-03-12T09:11:34;87473.34;;;-145.17;45.79
32759;BME280;19125;52.360;9.974;2023-03-12T09:14:04;87481.28;;;-145.17;46.52
32759;BME280;19125;52.360;9.974;2023-03-12T09:16:29;87453.50;;;-145.17;45.64
32759;BME280;19125;52.360;9.974;2023-03-12T09:18:54;87417.75;;;-145.17;44.89
32759;BME280;19125;52.360;9.974;2023-03-12T09:21:20;87419.75;;;-145.17;44.54
32759;BME280;19125;52.360;9.974;2023-03-12T09:23:46;87461.44;;;-145.17;44.63
32759;BME280;19125;52.360;9.974;2023-03-12T09:26:12;87423.72;;;-145.17;44.22
32759;BME280;19125;52.360;9.974;2023-03-12T09:28:37;87445.56;;;-145.17;43.90
32759;BME280;19125;52.360;9.974;2023-03-12T09:31:04;87423.72;;;-145.17;43.64
32759;BME280;19125;52.360;9.974;2023-03-12T09:33:30;87419.75;;;-145.17;43.73
32759;BME280;19125;52.360;9.974;2023-03-12T09:35:57;87431.66;;;-145.17;44.21
32759;BME280;19125;52.360;9.974;2023-03-12T09:38:22;87356.22;;;-145.17;43.43
32759;BME280;19125;52.360;9.974;2023-03-12T09:40:48;87330.44;;;-145.17;43.43
32759;BME280;19125;52.360;9.974;2023-03-12T09:43:18;87364.16;;;-145.17;43.37
32759;BME280;19125;52.360;9.974;2023-03-12T09:45:47;87320.50;;;-145.17;43.29
32759;BME280;19125;52.360;9.974;2023-03-12T09:48:22;87326.44;;;-145.17;42.81
32759;BME280;19125;52.360;9.974;2023-03-12T09:50:50;87278.81;;;-145.17;42.59
32759;BME280;19125;52.360;9.974;2023-03-12T09:53:26;87272.84;;;-145.17;41.95
32759;BME280;19125;52.360;9.974;2023-03-12T09:55:56;87243.09;;;-145.17;41.98
32759;BME280;19125;52.360;9.974;2023-03-12T09:58:28;87243.09;;;-145.17;41.46
32759;BME280;19125;52.360;9.974;2023-03-12T10:01:00;87227.22;;;-145.17;41.58
32759;BME280;19125;52.360;9.974;2023-03-12T10:06:28;87219.28;;;-145.17;40.81
32759;BME280;19125;52.360;9.974;2023-03-12T10:11:54;87179.56;;;-145.17;40.11
32759;BME280;19125;52.360;9.974;2023-03-12T10:22:51;87175.59;;;-145.17;39.76
32759;BME280;19125;52.360;9.974;2023-03-12T10:28:40;87211.31;;;-145.17;39.92
32759;BME280;19125;52.360;9.974;2023-03-12T10:31:05;87181.56;;;-145.17;39.94
32759;BME280;19125;52.360;9.974;2023-03-12T10:33:51;87195.44;;;-145.17;40.44
32759;BME280;19125;52.360;9.974;2023-03-12T10:36:21;87191.47;;;-145.17;40.29
32759;BME280;19125;52.360;9.974;2023-03-12T10:38:49;87243.09;;;-145.17;40.15
32759;BME280;19125;52.360;9.974;2023-03-12T10:41:18;87201.41;;;-145.17;39.89
32759;BME280;19125;52.360;9.974;2023-03-12T10:43:44;87199.41;;;-145.17;39.69
32759;BME280;19125;52.360;9.974;2023-03-12T10:52:00;87227.22;;;-145.17;40.18
32759;BME280;19125;52.360;9.974;2023-03-12T10:54:35;87225.22;;;-145.17;40.38
32759;BME280;19125;52.360;9.974;2023-03-12T10:57:01;87221.25;;;-145.17;40.55
32759;BME280;19125;52.360;9.974;2023-03-12T10:59:36;87241.09;;;-145.17;40.69
32759;BME280;19125;52.360;9.974;2023-03-12T11:02:17;87235.16;;;-145.17;40.88
32759;BME280;19125;52.360;9.974;2023-03-12T11:04:52;87296.69;;;-145.17;41.40
32759;BME280;19125;52.360;9.974;2023-03-12T11:07:28;87294.69;;;-145.17;41.77
32759;BME280;19125;52.360;9.974;2023-03-12T11:12:32;87364.16;;;-145.17;42.66
32759;BME280;19125;52.360;9.974;2023-03-12T11:15:17;87370.13;;;-145.17;43.11
32759;BME280;19125;52.360;9.974;2023-03-12T11:17:44;87399.91;;;-145.17;44.07
32759;BME280;19125;52.360;9.974;2023-03-12T11:22:50;87433.66;;;-145.17;44.93
32759;BME280;19125;52.360;9.974;2023-03-12T11:25:27;87483.28;;;-145.17;45.45
32759;BME280;19125;52.360;9.974;2023-03-12T11:27:59;87487.25;;;-145.17;45.74
32759;BME280;19125;52.360;9.974;2023-03-12T11:30:41;87463.41;;;-145.17;46.44
32759;BME280;19125;52.360;9.974;2023-03-12T11:33:09;87493.19;;;-145.17;46.88
32759;BME280;19125;52.360;9.974;2023-03-12T11:35:44;87491.22;;;-145.17;46.78
32759;BME280;19125;52.360;9.974;2023-03-12T11:38:30;87471.34;;;-145.17;46.94
32759;BME280;19125;52.360;9.974;2023-03-12T11:41:11;87485.25;;;-145.17;47.14
32759;BME280;19125;52.360;9.974;2023-03-12T11:44:00;87493.19;;;-145.17;47.55
32759;BME280;19125;52.360;9.974;2023-03-12T11:54:28;87475.31;;;-145.17;47.77
32759;BME280;19125;52.360;9.974;2023-03-12T11:57:25;87457.47;;;-145.17;47.10
32759;BME280;19125;52.360;9.974;2023-03-12T12:00:02;87413.78;;;-145.17;46.99
32759;BME280;19125;52.360;9.974;2023-03-12T12:05:35;87457.47;;;-145.17;47.26
32759;BME280;19125;52.360;9.974;2023-03-12T12:10:57;87471.34;;;-145.17;47.50
32759;BME280;19125;52.360;9.974;2023-03-12T12:27:24;87570.59;;;-145.17;50.14
32759;BME280;19125;52.360;9.974;2023-03-12T12:29:54;87620.25;;;-145.17;50.21
32759;BME280;19125;52.360;9.974;2023-03-12T12:35:04;87624.22;;;-145.17;51.13
32759;BME280;19125;52.360;9.974;2023-03-12T12:40:41;87711.56;;;-145.17;52.34
32759;BME280;19125;52.360;9.974;2023-03-12T12:43:27;87737.34;;;-145.17;52.85
32759;BME280;19125;52.360;9.974;2023-03-12T12:46:00;87790.97;;;-145.17;53.78
32759;BME280;19125;52.360;9.974;2023-03-12T12:48:37;87886.25;;;-145.17;54.45
32759;BME280;19125;52.360;9.974;2023-03-12T12:51:06;87876.31;;;-145.17;55.38
32759;BME280;19125;52.360;9.974;2023-03-12T12:56:21;88025.22;;;-145.17;56.87
32759;BME280;19125;52.360;9.974;2023-03-12T12:59:23;88084.78;;;-145.17;57.47
32759;BME280;19125;52.360;9.974;2023-03-12T13:01:53;88066.91;;;-145.17;58.03
32759;BME280;19125;52.360;9.974;2023-03-12T13:04:36;88140.38;;;-145.17;58.56
32759;BME280;19125;52.360;9.974;2023-03-12T13:12:46;88172.13;;;-145.17;58.68
32759;BME280;19125;52.360;9.974;2023-03-12T13:33:55;88301.19;;;-145.17;60.07
32759;BME280;19125;52.360;9.974;2023-03-12T13:36:27;88287.28;;;-145.17;60.17
32759;BME280;19125;52.360;9.974;2023-03-12T13:39:27;88317.06;;;-145.17;60.11
32759;BME280;19125;52.360;9.974;2023-03-12T13:41:55;88309.13;;;-145.17;60.07
32759;BME280;19125;52.360;9.974;2023-03-12T13:49:45;88323.03;;;-145.17;60.76
32759;BME280;19125;52.360;9.974;2023-03-12T13:54:40;88350.81;;;-145.17;60.98
32759;BME280;19125;52.360;9.974;2023-03-12T13:59:55;88380.59;;;-145.17;61.47
32759;BME280;19125;52.360;9.974;2023-03-12T14:02:27;88398.47;;;-145.17;61.55
32759;BME280;19125;52.360;9.974;2023-03-12T14:05:01;88358.75;;;-145.17;61.84
32759;BME280;19125;52.360;9.974;2023-03-12T14:07:59;88402.44;;;-145.17;61.71
32759;BME280;19125;52.360;9.974;2023-03-12T14:10:35;88440.16;;;-145.17;61.92
32759;BME280;19125;52.360;9.974;2023-03-12T14:18:21;88438.19;;;-145.17;62.73
32759;BME280;19125;52.360;9.974;2023-03-12T14:20:53;88469.94;;;-145.17;62.74
32759;BME280;19125;52.360;9.974;2023-03-12T14:23:21;88464.00;;;-145.17;62.50
32759;BME280;19125;52.360;9.974;2023-03-12T14:25:52;88521.56;;;-145.17;62.76
32759;BME280;19125;52.360;9.974;2023-03-12T14:28:22;88497.75;;;-145.17;62.98
32759;BME280;19125;52.360;9.974;2023-03-12T14:30:58;88465.97;;;-145.17;62.92
32759;BME280;19125;52.360;9.974;2023-03-12T14:33:30;88454.06;;;-145.17;62.81
32759;BME280;19125;52.360;9.974;2023-03-12T14:36:03;88446.13;;;-145.17;63.33